createdAt,value
2022-10-13T00:00:48.186Z,97.33
2022-10-13T00:01:51.188Z,97.36
2022-10-13T00:02:54.699Z,97.25
2022-10-13T00:03:57.658Z,97.25
2022-10-13T00:05:00.505Z,97.25
2022-10-13T00:06:06.467Z,97.22
2022-10-13T00:07:09.458Z,97.18
2022-10-13T00:08:21.079Z,97.12
2022-10-13T00:09:23.902Z,97.12
2022-10-13T00:10:27.555Z,97.04
2022-10-13T00:11:31.094Z,96.92
2022-10-13T00:12:40.362Z,97.07
2022-10-13T00:13:44.580Z,97.13
2022-10-13T00:14:47.461Z,97.05
2022-10-13T00:15:50.300Z,97.06
2022-10-13T00:16:54.376Z,97.09
2022-10-13T00:17:57.304Z,97.05
2022-10-13T00:19:00.450Z,97.08
2022-10-13T00:20:05.198Z,97.04
2022-10-13T00:21:10.476Z,97.03
2022-10-13T00:22:13.425Z,97.13
2022-10-13T00:23:16.882Z,97.30
2022-10-13T00:24:19.746Z,97.39
2022-10-13T00:25:22.530Z,97.34
2022-10-13T00:26:26.596Z,97.31
2022-10-13T00:27:29.817Z,97.35
2022-10-13T00:28:33.522Z,97.47
2022-10-13T00:29:36.290Z,97.46
2022-10-13T00:30:40.043Z,97.50
2022-10-13T00:31:42.840Z,97.56
2022-10-13T00:32:45.729Z,97.44
2022-10-13T00:33:53.053Z,97.25
2022-10-13T00:34:57.947Z,97.18
2022-10-13T00:36:00.916Z,97.35
2022-10-13T00:37:04.943Z,97.37
2022-10-13T00:38:07.895Z,97.28
2022-10-13T00:39:10.744Z,97.33
2022-10-13T00:40:13.537Z,97.44
2022-10-13T00:41:16.642Z,97.56
2022-10-13T00:42:20.259Z,97.71
2022-10-13T00:43:47.860Z,97.78
2022-10-13T00:45:02.433Z,97.55
2022-10-13T00:46:05.918Z,97.43
2022-10-13T00:47:09.612Z,97.52
2022-10-13T00:48:13.388Z,97.53
2022-10-13T00:49:16.321Z,97.48
2022-10-13T00:50:24.188Z,97.32
2022-10-13T00:51:30.645Z,97.28
2022-10-13T00:52:34.317Z,97.46
2022-10-13T00:53:39.330Z,97.51
2022-10-13T00:54:42.481Z,97.56
2022-10-13T00:55:47.255Z,97.64
2022-10-13T00:56:51.838Z,97.64
2022-10-13T00:57:56.377Z,97.74
2022-10-13T00:59:01.635Z,97.65
2022-10-13T01:00:05.286Z,97.45
2022-10-13T01:01:08.617Z,97.29
2022-10-13T01:02:11.674Z,97.29
2022-10-13T01:03:15.166Z,97.35
2022-10-13T01:04:23.218Z,97.14
2022-10-13T01:05:26.298Z,97.11
2022-10-13T01:06:30.181Z,97.21
2022-10-13T01:07:34.179Z,97.29
2022-10-13T01:08:37.168Z,97.38
2022-10-13T01:09:42.709Z,97.41
2022-10-13T01:11:07.105Z,97.23
2022-10-13T01:12:28.694Z,97.10
2022-10-13T01:13:40.417Z,97.13
2022-10-13T01:14:58.271Z,97.07
2022-10-13T01:16:31.068Z,97.26
2022-10-13T01:17:58.719Z,97.52
2022-10-13T01:19:09.166Z,97.78
2022-10-13T01:20:30.576Z,97.87
2022-10-13T01:21:46.839Z,97.97
2022-10-13T01:23:38.276Z,98.03
2022-10-13T01:25:03.348Z,98.06
2022-10-13T01:26:44.026Z,98.04
2022-10-13T01:28:09.169Z,98.04
2022-10-13T01:29:31.977Z,98.09
2022-10-13T01:30:48.786Z,97.95
2022-10-13T01:32:12.497Z,97.86
2022-10-13T01:33:34.923Z,97.95
2022-10-13T01:35:09.824Z,98.00
2022-10-13T01:36:28.799Z,97.94
2022-10-13T01:37:49.247Z,97.92
2022-10-13T01:39:03.748Z,97.95
2022-10-13T01:40:28.100Z,97.91
2022-10-13T01:41:39.198Z,97.79
2022-10-13T01:42:50.942Z,97.84
2022-10-13T01:44:21.330Z,97.86
2022-10-13T01:45:31.093Z,97.94
2022-10-13T01:46:37.850Z,97.90
2022-10-13T01:47:42.065Z,97.92
2022-10-13T01:48:46.470Z,97.90
2022-10-13T01:49:51.859Z,97.75
2022-10-13T01:50:57.098Z,97.70
2022-10-13T01:52:07.980Z,97.75
2022-10-13T01:53:12.726Z,97.76
2022-10-13T01:54:15.857Z,97.80
2022-10-13T01:55:19.124Z,97.82
2022-10-13T01:56:23.015Z,97.82
2022-10-13T01:57:32.580Z,97.90
2022-10-13T01:58:37.853Z,97.94
2022-10-13T01:59:40.648Z,98.02
2022-10-13T02:00:53.746Z,98.04
2022-10-13T02:02:19.623Z,97.99
2022-10-13T02:03:34.571Z,97.88
2022-10-13T02:04:56.068Z,97.76
2022-10-13T02:06:30.831Z,97.70
2022-10-13T02:07:53.667Z,97.57
2022-10-13T02:09:05.693Z,97.56
2022-10-13T02:10:27.790Z,97.40
2022-10-13T02:11:31.079Z,97.31
2022-10-13T02:12:48.527Z,97.26
2022-10-13T02:14:16.696Z,97.03
2022-10-13T02:15:26.382Z,97.00
2022-10-13T02:16:35.334Z,97.22
2022-10-13T02:17:38.767Z,97.27
2022-10-13T02:18:41.984Z,97.30
2022-10-13T02:19:45.466Z,97.13
2022-10-13T02:20:49.382Z,96.92
2022-10-13T02:21:53.584Z,97.00
2022-10-13T02:23:01.611Z,97.12
2022-10-13T02:24:05.950Z,97.20
2022-10-13T02:25:09.536Z,97.29
2022-10-13T02:26:14.333Z,97.35
2022-10-13T02:27:17.255Z,97.39
2022-10-13T02:28:20.482Z,97.47
2022-10-13T02:29:24.090Z,97.61
2022-10-13T02:30:30.205Z,97.70
2022-10-13T02:31:33.013Z,97.83
2022-10-13T02:32:36.011Z,97.95
2022-10-13T02:33:39.062Z,98.03
2022-10-13T02:34:41.855Z,98.08
2022-10-13T02:35:45.341Z,98.16
2022-10-13T02:36:50.254Z,98.19
2022-10-13T02:37:53.096Z,98.19
2022-10-13T02:38:59.243Z,98.17
2022-10-13T02:40:02.186Z,98.16
2022-10-13T02:41:05.300Z,98.21
2022-10-13T02:42:08.221Z,98.26
2022-10-13T02:43:11.050Z,98.30
2022-10-13T02:44:13.896Z,98.33
2022-10-13T02:45:17.131Z,98.38
2022-10-13T02:46:19.929Z,98.45
2022-10-13T02:47:23.055Z,98.46
2022-10-13T02:48:26.135Z,98.46
2022-10-13T02:49:28.985Z,98.37
2022-10-13T02:50:32.169Z,98.33
2022-10-13T02:51:39.894Z,98.15
2022-10-13T02:52:43.388Z,98.04
2022-10-13T02:53:46.880Z,98.14
2022-10-13T02:54:49.793Z,98.19
2022-10-13T02:55:52.627Z,98.21
2022-10-13T02:56:55.562Z,98.34
2022-10-13T02:57:58.501Z,98.49
2022-10-13T02:59:01.420Z,98.51
2022-10-13T03:00:06.291Z,98.52
2022-10-13T03:01:13.461Z,98.53
2022-10-13T03:02:17.242Z,98.54
2022-10-13T03:03:20.254Z,98.56
2022-10-13T03:04:23.412Z,98.37
2022-10-13T03:05:26.294Z,98.24
2022-10-13T03:06:29.171Z,98.31
2022-10-13T03:07:33.099Z,98.38
2022-10-13T03:08:36.613Z,98.40
2022-10-13T03:09:39.472Z,98.43
2022-10-13T03:10:42.408Z,98.53
2022-10-13T03:11:45.175Z,98.34
2022-10-13T03:12:48.176Z,98.35
2022-10-13T03:13:51.214Z,98.40
2022-10-13T03:14:54.122Z,98.26
2022-10-13T03:15:57.130Z,98.28
2022-10-13T03:17:00.029Z,98.56
2022-10-13T03:18:02.796Z,98.36
2022-10-13T03:19:05.573Z,98.24
2022-10-13T03:20:09.095Z,98.06
2022-10-13T03:21:12.127Z,97.95
2022-10-13T03:22:19.555Z,98.00
2022-10-13T03:23:22.470Z,98.21
2022-10-13T03:24:25.334Z,98.37
2022-10-13T03:25:28.589Z,98.53
2022-10-13T03:26:31.990Z,98.68
2022-10-13T03:27:35.186Z,98.82
2022-10-13T03:28:38.124Z,98.91
2022-10-13T03:29:40.875Z,98.91
2022-10-13T03:30:43.856Z,98.93
2022-10-13T03:31:47.021Z,99.01
2022-10-13T03:32:49.855Z,99.12
2022-10-13T03:33:52.693Z,99.17
2022-10-13T03:34:55.625Z,99.24
2022-10-13T03:36:00.727Z,99.29
2022-10-13T03:37:03.664Z,99.29
2022-10-13T03:38:06.736Z,99.33
2022-10-13T03:39:09.610Z,99.30
2022-10-13T03:40:12.895Z,99.18
2022-10-13T03:41:18.788Z,99.09
2022-10-13T03:42:21.984Z,99.01
2022-10-13T03:43:25.420Z,98.94
2022-10-13T03:44:28.447Z,98.87
2022-10-13T03:45:31.613Z,98.80
2022-10-13T03:46:34.815Z,98.83
2022-10-13T03:47:38.334Z,98.88
2022-10-13T03:48:42.013Z,98.91
2022-10-13T03:49:44.711Z,98.92
2022-10-13T03:50:47.595Z,98.84
2022-10-13T03:51:50.456Z,98.72
2022-10-13T03:52:53.461Z,98.62
2022-10-13T03:53:56.378Z,98.50
2022-10-13T03:54:59.291Z,98.16
2022-10-13T03:56:02.051Z,98.01
2022-10-13T03:57:04.818Z,97.93
2022-10-13T03:58:11.298Z,97.83
2022-10-13T03:59:16.985Z,97.85
2022-10-13T04:00:20.342Z,97.94
2022-10-13T04:01:25.490Z,98.10
2022-10-13T04:02:28.455Z,98.19
2022-10-13T04:03:32.134Z,97.92
2022-10-13T04:04:35.615Z,97.52
2022-10-13T04:05:38.528Z,97.47
2022-10-13T04:06:41.576Z,97.66
2022-10-13T04:07:44.451Z,98.00
2022-10-13T04:08:47.707Z,98.34
2022-10-13T04:09:50.660Z,98.55
2022-10-13T04:11:07.716Z,98.74
2022-10-13T04:12:10.671Z,98.87
2022-10-13T04:13:13.657Z,99.04
2022-10-13T04:14:16.539Z,99.11
2022-10-13T04:15:19.415Z,99.10
2022-10-13T04:16:24.953Z,99.07
2022-10-13T04:17:27.715Z,99.04
2022-10-13T04:18:30.753Z,99.00
2022-10-13T04:19:33.937Z,98.95
2022-10-13T04:20:39.392Z,98.71
2022-10-13T04:21:43.278Z,98.68
2022-10-13T04:22:46.386Z,98.74
2022-10-13T04:23:49.250Z,98.82
2022-10-13T04:24:52.093Z,98.98
2022-10-13T04:25:55.017Z,99.04
2022-10-13T04:26:58.134Z,99.07
2022-10-13T04:28:01.050Z,99.11
2022-10-13T04:29:05.949Z,99.17
2022-10-13T04:30:12.432Z,99.24
2022-10-13T04:31:16.475Z,99.23
2022-10-13T04:32:19.489Z,99.17
2022-10-13T04:33:26.305Z,99.18
2022-10-13T04:34:29.089Z,99.20
2022-10-13T04:35:32.265Z,99.25
2022-10-13T04:36:35.340Z,99.22
2022-10-13T04:37:41.621Z,99.26
2022-10-13T04:38:48.154Z,99.27
2022-10-13T04:39:51.183Z,99.24
2022-10-13T04:40:53.963Z,99.27
2022-10-13T04:41:56.988Z,99.25
2022-10-13T04:43:00.107Z,99.24
2022-10-13T04:44:02.907Z,99.21
2022-10-13T04:45:06.292Z,99.14
2022-10-13T04:46:13.945Z,99.06
2022-10-13T04:47:16.825Z,98.90
2022-10-13T04:48:19.649Z,98.62
2022-10-13T04:49:22.797Z,98.28
2022-10-13T04:50:25.656Z,98.18
2022-10-13T04:51:28.467Z,98.21
2022-10-13T04:52:31.239Z,98.32
2022-10-13T04:53:34.475Z,98.31
2022-10-13T04:54:37.434Z,98.33
2022-10-13T04:55:40.408Z,98.40
2022-10-13T04:56:46.232Z,98.57
2022-10-13T04:57:49.162Z,98.65
2022-10-13T04:58:52.271Z,98.52
2022-10-13T04:59:55.104Z,98.62
2022-10-13T05:00:58.593Z,98.75
2022-10-13T05:02:03.755Z,98.78
2022-10-13T05:03:06.516Z,98.87
2022-10-13T05:04:10.954Z,98.87
2022-10-13T05:05:17.023Z,98.92
2022-10-13T05:06:23.737Z,99.04
2022-10-13T05:07:26.761Z,99.15
2022-10-13T05:08:29.821Z,99.15
2022-10-13T05:09:32.840Z,99.13
2022-10-13T05:10:35.631Z,99.15
2022-10-13T05:11:38.364Z,99.05
2022-10-13T05:12:41.114Z,99.08
2022-10-13T05:13:44.110Z,99.03
2022-10-13T05:14:46.811Z,98.94
2022-10-13T05:15:49.766Z,98.82
2022-10-13T05:16:52.515Z,98.71
2022-10-13T05:17:55.412Z,98.70
2022-10-13T05:18:58.177Z,98.72
2022-10-13T05:20:01.005Z,98.83
2022-10-13T05:21:12.495Z,98.90
2022-10-13T05:22:15.416Z,99.07
2022-10-13T05:23:18.430Z,99.18
2022-10-13T05:24:31.214Z,99.26
2022-10-13T05:25:38.159Z,99.37
2022-10-13T05:26:41.168Z,99.42
2022-10-13T05:27:46.505Z,99.36
2022-10-13T05:28:49.631Z,99.16
2022-10-13T05:29:52.545Z,99.11
2022-10-13T05:30:55.299Z,98.98
2022-10-13T05:31:58.032Z,99.04
2022-10-13T05:33:01.217Z,98.90
2022-10-13T05:34:04.270Z,98.82
2022-10-13T05:35:07.414Z,98.97
2022-10-13T05:36:31.614Z,99.09
2022-10-13T05:37:34.357Z,99.27
2022-10-13T05:38:37.238Z,99.36
2022-10-13T05:39:40.040Z,99.25
2022-10-13T05:40:42.953Z,99.22
2022-10-13T05:41:45.836Z,99.32
2022-10-13T05:42:54.288Z,99.35
2022-10-13T05:44:00.145Z,99.21
2022-10-13T05:45:03.224Z,99.16
2022-10-13T05:46:06.779Z,99.26
2022-10-13T05:47:09.689Z,99.23
2022-10-13T05:48:12.648Z,99.23
2022-10-13T05:49:16.068Z,99.28
2022-10-13T05:50:19.379Z,99.33
2022-10-13T05:51:31.015Z,99.37
2022-10-13T05:52:33.829Z,99.28
2022-10-13T05:53:41.461Z,99.24
2022-10-13T05:54:50.589Z,99.23
2022-10-13T05:55:57.412Z,99.13
2022-10-13T05:57:09.171Z,99.04
2022-10-13T05:58:12.253Z,98.93
2022-10-13T05:59:17.999Z,98.91
2022-10-13T06:00:21.037Z,98.88
2022-10-13T06:01:27.819Z,98.87
2022-10-13T06:02:57.756Z,98.82
2022-10-13T06:04:05.960Z,98.78
2022-10-13T06:05:15.030Z,98.81
2022-10-13T06:06:18.122Z,98.79
2022-10-13T06:07:20.997Z,98.70
2022-10-13T06:08:23.995Z,98.52
2022-10-13T06:09:34.990Z,98.39
2022-10-13T06:10:38.446Z,98.26
2022-10-13T06:11:41.392Z,98.37
2022-10-13T06:12:44.329Z,98.53
2022-10-13T06:13:47.165Z,98.60
2022-10-13T06:14:50.060Z,98.56
2022-10-13T06:15:52.888Z,98.61
2022-10-13T06:16:55.664Z,98.72
2022-10-13T06:17:58.699Z,98.81
2022-10-13T06:19:01.559Z,98.85
2022-10-13T06:20:06.442Z,98.91
2022-10-13T06:21:09.362Z,98.96
2022-10-13T06:22:12.382Z,98.97
2022-10-13T06:23:15.258Z,99.02
2022-10-13T06:24:18.201Z,99.05
2022-10-13T06:25:21.046Z,99.10
2022-10-13T06:26:23.912Z,99.16
2022-10-13T06:27:27.160Z,99.19
2022-10-13T06:28:29.877Z,99.19
2022-10-13T06:29:33.709Z,99.22
2022-10-13T06:30:38.604Z,99.17
2022-10-13T06:31:41.542Z,99.23
2022-10-13T06:32:44.377Z,99.28
2022-10-13T06:33:47.238Z,99.33
2022-10-13T06:34:50.101Z,99.35
2022-10-13T06:35:53.495Z,99.34
2022-10-13T06:36:56.506Z,99.40
2022-10-13T06:37:59.490Z,99.51
2022-10-13T06:39:02.539Z,99.55
2022-10-13T06:40:05.807Z,99.60
2022-10-13T06:41:08.692Z,99.66
2022-10-13T06:42:11.517Z,99.66
2022-10-13T06:43:14.620Z,99.68
2022-10-13T06:44:17.486Z,99.75
2022-10-13T06:45:20.351Z,99.81
2022-10-13T06:46:23.152Z,99.93
2022-10-13T06:47:26.188Z,100.00
2022-10-13T06:48:29.770Z,100.00
2022-10-13T06:49:32.656Z,100.00
2022-10-13T06:50:39.436Z,100.00
2022-10-13T06:51:45.074Z,100.00
2022-10-13T06:52:47.989Z,99.83
2022-10-13T06:53:51.260Z,99.68
2022-10-13T06:54:54.219Z,99.56
2022-10-13T06:55:59.589Z,99.43
2022-10-13T06:57:02.375Z,99.41
2022-10-13T06:58:05.174Z,99.41
2022-10-13T06:59:08.292Z,99.37
2022-10-13T07:00:11.762Z,99.34
2022-10-13T07:01:15.202Z,99.33
2022-10-13T07:02:18.420Z,99.31
2022-10-13T07:03:21.711Z,99.32
2022-10-13T07:04:26.124Z,99.32
2022-10-13T07:05:29.089Z,99.34
2022-10-13T07:06:31.947Z,99.18
2022-10-13T07:07:34.826Z,99.01
2022-10-13T07:08:37.884Z,98.84
2022-10-13T07:09:41.171Z,98.80
2022-10-13T07:10:44.011Z,98.75
2022-10-13T07:11:48.115Z,98.69
2022-10-13T07:12:51.234Z,98.61
2022-10-13T07:13:55.239Z,98.51
2022-10-13T07:14:58.216Z,98.45
2022-10-13T07:16:04.549Z,98.43
2022-10-13T07:17:07.614Z,98.26
2022-10-13T07:18:10.397Z,98.16
2022-10-13T07:19:13.223Z,98.08
2022-10-13T07:20:16.200Z,97.90
2022-10-13T07:21:19.440Z,97.82
2022-10-13T07:22:22.312Z,97.74
2022-10-13T07:23:25.713Z,97.46
2022-10-13T07:24:28.500Z,97.04
2022-10-13T07:25:31.653Z,96.80
2022-10-13T07:26:34.610Z,96.59
2022-10-13T07:27:38.521Z,96.61
2022-10-13T07:28:43.369Z,96.54
2022-10-13T07:29:46.344Z,95.90
2022-10-13T07:30:49.195Z,94.74
2022-10-13T07:31:52.085Z,94.16
2022-10-13T07:32:55.049Z,94.08
2022-10-13T07:33:59.766Z,93.83
2022-10-13T07:35:03.374Z,93.63
2022-10-13T07:36:07.198Z,92.52
2022-10-13T07:37:10.300Z,92.04
2022-10-13T07:38:13.699Z,91.57
2022-10-13T07:39:16.862Z,91.46
2022-10-13T07:40:19.774Z,90.86
2022-10-13T07:41:22.514Z,90.46
2022-10-13T07:42:25.266Z,90.09
2022-10-13T07:43:28.371Z,89.82
2022-10-13T07:44:31.428Z,89.74
2022-10-13T07:45:34.463Z,89.40
2022-10-13T07:46:37.221Z,89.39
2022-10-13T07:47:39.998Z,89.05
2022-10-13T07:48:43.004Z,89.23
2022-10-13T07:49:46.321Z,89.30
2022-10-13T07:50:49.185Z,89.28
2022-10-13T07:51:52.137Z,89.21
2022-10-13T07:52:55.076Z,88.78
2022-10-13T07:53:57.900Z,88.35
2022-10-13T07:55:00.783Z,87.75
2022-10-13T07:56:06.769Z,87.60
2022-10-13T07:57:09.647Z,87.38
2022-10-13T07:58:12.572Z,87.06
2022-10-13T07:59:15.435Z,85.51
2022-10-13T08:00:19.024Z,84.40
2022-10-13T08:01:21.839Z,84.29
2022-10-13T08:02:24.788Z,84.82
2022-10-13T08:03:28.607Z,85.11
2022-10-13T08:04:32.573Z,85.19
2022-10-13T08:05:38.164Z,85.21
2022-10-13T08:06:42.524Z,85.48
2022-10-13T08:07:45.788Z,85.93
2022-10-13T08:08:48.780Z,86.01
2022-10-13T08:09:51.652Z,85.99
2022-10-13T08:10:55.445Z,85.78
2022-10-13T08:12:00.956Z,84.39
2022-10-13T08:13:04.928Z,84.58
2022-10-13T08:14:07.646Z,84.24
2022-10-13T08:15:11.008Z,83.54
2022-10-13T08:16:14.157Z,83.61
2022-10-13T08:17:17.824Z,82.68
2022-10-13T08:18:20.815Z,81.85
2022-10-13T08:19:26.666Z,81.23
2022-10-13T08:20:40.998Z,81.90
2022-10-13T08:22:01.785Z,81.96
2022-10-13T08:23:04.988Z,81.77
2022-10-13T08:24:12.069Z,81.71
2022-10-13T08:25:14.998Z,81.45
2022-10-13T08:26:24.324Z,80.55
2022-10-13T08:27:47.646Z,80.32
2022-10-13T08:29:09.504Z,79.97
2022-10-13T08:30:14.460Z,79.65
2022-10-13T08:31:17.577Z,78.70
2022-10-13T08:32:22.520Z,76.46
2022-10-13T08:33:26.839Z,77.05
2022-10-13T08:34:29.740Z,77.44
2022-10-13T08:35:34.762Z,77.84
2022-10-13T08:36:39.215Z,77.58
2022-10-13T08:37:42.136Z,76.11
2022-10-13T08:38:45.846Z,76.08
2022-10-13T08:39:49.296Z,74.26
2022-10-13T08:40:52.430Z,74.66
2022-10-13T08:41:58.035Z,74.25
2022-10-13T08:43:00.877Z,73.17
2022-10-13T08:45:44.659Z,74.21
2022-10-13T08:46:58.308Z,71.35
2022-10-13T08:48:06.161Z,71.00
2022-10-13T08:49:09.036Z,71.67
2022-10-13T08:50:16.393Z,71.90
2022-10-13T08:51:19.714Z,71.27
2022-10-13T08:52:42.307Z,71.57
2022-10-13T08:53:47.289Z,72.44
2022-10-13T08:54:51.041Z,70.60
2022-10-13T08:56:23.095Z,70.60
2022-10-13T08:57:26.037Z,70.92
2022-10-13T08:58:33.015Z,70.61
2022-10-13T08:59:35.838Z,69.44
2022-10-13T09:00:38.827Z,68.73
2022-10-13T09:01:42.324Z,69.08
2022-10-13T09:02:45.995Z,69.22
2022-10-13T09:04:24.798Z,69.08
2022-10-13T09:05:43.784Z,66.49
2022-10-13T09:07:03.584Z,67.36
2022-10-13T09:08:16.566Z,67.01
2022-10-13T09:09:19.543Z,66.74
2022-10-13T09:10:22.382Z,65.81
2022-10-13T09:11:48.340Z,65.96
2022-10-13T09:12:51.874Z,66.29
2022-10-13T09:13:57.106Z,66.45
2022-10-13T09:15:06.595Z,65.91
2022-10-13T09:16:09.593Z,65.26
2022-10-13T09:17:26.852Z,65.91
2022-10-13T09:18:32.636Z,64.11
2022-10-13T09:19:36.813Z,64.93
2022-10-13T09:20:41.850Z,64.68
2022-10-13T09:21:44.892Z,64.71
2022-10-13T09:23:04.775Z,65.14
2022-10-13T09:24:13.932Z,65.57
2022-10-13T09:25:23.084Z,65.28
2022-10-13T09:26:26.220Z,64.35
2022-10-13T09:27:29.111Z,64.08
2022-10-13T09:28:32.743Z,63.82
2022-10-13T09:29:35.685Z,64.73
2022-10-13T09:30:45.049Z,65.02
2022-10-13T09:31:48.245Z,65.25
2022-10-13T09:32:51.579Z,64.93
2022-10-13T09:34:03.834Z,63.71
2022-10-13T09:35:22.015Z,64.09
2022-10-13T09:36:25.055Z,64.33
2022-10-13T09:37:28.373Z,64.37
2022-10-13T09:38:34.022Z,64.34
2022-10-13T09:39:36.788Z,64.28
2022-10-13T09:40:41.036Z,64.36
2022-10-13T09:41:44.573Z,63.55
2022-10-13T09:42:56.430Z,63.02
2022-10-13T09:44:06.175Z,63.34
2022-10-13T09:45:21.617Z,64.02
2022-10-13T09:46:27.518Z,64.03
2022-10-13T09:47:33.389Z,63.60
2022-10-13T09:48:37.803Z,62.87
2022-10-13T09:49:43.797Z,62.63
2022-10-13T09:50:52.390Z,62.88
2022-10-13T09:52:20.430Z,63.05
2022-10-13T09:53:40.330Z,62.32
2022-10-13T09:54:45.638Z,63.40
2022-10-13T09:55:49.882Z,63.59
2022-10-13T09:56:59.618Z,63.70
2022-10-13T09:58:15.023Z,64.08
2022-10-13T09:59:41.710Z,63.13
2022-10-13T10:00:45.677Z,62.54
2022-10-13T10:01:52.325Z,62.84
2022-10-13T10:03:05.108Z,63.49
2022-10-13T10:04:16.096Z,63.87
2022-10-13T10:05:26.180Z,62.61
2022-10-13T10:06:29.161Z,61.60
2022-10-13T10:07:33.361Z,60.00
2022-10-13T10:09:02.687Z,60.84
2022-10-13T10:10:19.116Z,62.06
2022-10-13T10:11:32.641Z,60.70
2022-10-13T10:12:40.982Z,61.37
2022-10-13T10:13:43.884Z,61.88
2022-10-13T10:14:49.159Z,62.67
2022-10-13T10:16:03.766Z,61.99
2022-10-13T10:17:30.740Z,62.49
2022-10-13T10:18:45.580Z,61.91
2022-10-13T10:19:57.419Z,61.29
2022-10-13T10:21:10.412Z,61.08
2022-10-13T10:22:31.962Z,60.90
2022-10-13T10:23:48.577Z,59.45
2022-10-13T10:25:08.348Z,59.81
2022-10-13T10:26:23.625Z,59.28
2022-10-13T10:27:43.570Z,58.71
2022-10-13T10:29:17.425Z,58.89
2022-10-13T10:30:21.440Z,59.04
2022-10-13T10:31:36.474Z,59.07
2022-10-13T10:32:54.321Z,60.17
2022-10-13T10:34:05.124Z,58.31
2022-10-13T10:35:40.444Z,57.58
2022-10-13T10:37:13.253Z,57.91
2022-10-13T10:38:16.072Z,57.86
2022-10-13T10:39:34.240Z,58.02
2022-10-13T10:41:01.904Z,58.32
2022-10-13T10:42:23.937Z,57.82
2022-10-13T10:43:38.536Z,57.48
2022-10-13T10:44:48.409Z,56.33
2022-10-13T10:45:51.295Z,56.23
2022-10-13T10:46:57.987Z,55.28
2022-10-13T10:48:13.323Z,54.67
2022-10-13T10:49:23.408Z,53.72
2022-10-13T10:50:27.014Z,54.62
2022-10-13T10:51:37.042Z,54.96
2022-10-13T10:53:09.863Z,55.83
2022-10-13T10:54:18.760Z,56.01
2022-10-13T10:55:32.687Z,55.36
2022-10-13T10:56:40.127Z,55.04
2022-10-13T10:58:24.918Z,53.47
2022-10-13T10:59:52.362Z,54.49
2022-10-13T11:01:29.502Z,55.39
2022-10-13T11:02:48.126Z,55.37
2022-10-13T11:04:21.816Z,54.90
2022-10-13T11:05:24.778Z,54.54
2022-10-13T11:06:38.510Z,52.52
2022-10-13T11:07:44.147Z,52.92
2022-10-13T11:08:49.006Z,54.43
2022-10-13T11:09:55.822Z,55.20
2022-10-13T11:11:24.866Z,55.59
2022-10-13T11:12:52.473Z,54.48
2022-10-13T11:14:07.877Z,54.88
2022-10-13T11:15:13.418Z,55.25
2022-10-13T11:16:33.558Z,55.68
2022-10-13T11:17:38.839Z,56.06
2022-10-13T11:19:29.271Z,54.45
2022-10-13T11:20:35.079Z,54.10
2022-10-13T11:21:52.981Z,54.42
2022-10-13T11:22:58.456Z,55.65
2022-10-13T11:24:02.340Z,54.85
2022-10-13T11:25:36.174Z,53.29
2022-10-13T11:26:43.843Z,53.49
2022-10-13T11:27:46.600Z,53.31
2022-10-13T11:28:50.567Z,54.21
2022-10-13T11:30:03.508Z,55.03
2022-10-13T11:31:23.937Z,55.20
2022-10-13T11:32:49.617Z,55.02
2022-10-13T11:33:56.147Z,54.93
2022-10-13T11:35:20.577Z,54.39
2022-10-13T11:36:34.578Z,55.15
2022-10-13T11:38:05.720Z,55.49
2022-10-13T11:39:41.038Z,53.05
2022-10-13T11:41:16.194Z,52.09
2022-10-13T11:42:35.329Z,54.49
2022-10-13T11:43:59.205Z,55.04
2022-10-13T11:45:12.383Z,52.57
2022-10-13T11:46:25.771Z,52.12
2022-10-13T11:48:02.280Z,52.05
2022-10-13T11:49:17.723Z,53.51
2022-10-13T11:51:04.085Z,54.12
2022-10-13T11:52:25.085Z,55.17
2022-10-13T11:53:39.977Z,54.64
2022-10-13T11:54:54.958Z,53.79
2022-10-13T11:55:59.649Z,53.77
2022-10-13T11:57:02.963Z,53.06
2022-10-13T11:58:28.968Z,53.11
2022-10-13T11:59:34.549Z,53.47
2022-10-13T12:00:37.453Z,53.64
2022-10-13T12:01:44.700Z,53.91
2022-10-13T12:02:52.738Z,53.51
2022-10-13T12:03:55.548Z,53.01
2022-10-13T12:05:08.501Z,53.19
2022-10-13T12:06:26.711Z,52.88
2022-10-13T12:07:37.084Z,53.13
2022-10-13T12:08:40.039Z,54.12
2022-10-13T12:09:56.305Z,53.66
2022-10-13T12:11:03.102Z,53.51
2022-10-13T12:12:16.686Z,52.90
2022-10-13T12:13:23.532Z,53.37
2022-10-13T12:14:43.476Z,53.84
2022-10-13T12:15:46.414Z,53.09
2022-10-13T12:18:03.470Z,52.88
2022-10-13T12:19:19.288Z,52.52
2022-10-13T12:20:28.674Z,53.29
2022-10-13T12:21:31.606Z,52.36
2022-10-13T12:22:40.292Z,52.64
2022-10-13T12:23:43.728Z,53.24
2022-10-13T12:25:04.695Z,53.69
2022-10-13T12:26:08.576Z,53.93
2022-10-13T12:27:25.451Z,52.40
2022-10-13T12:28:48.322Z,52.52
2022-10-13T12:29:51.421Z,52.77
2022-10-13T12:30:56.989Z,52.89
2022-10-13T12:31:59.845Z,53.10
2022-10-13T12:33:03.682Z,53.52
2022-10-13T12:34:28.235Z,54.02
2022-10-13T12:35:34.895Z,54.74
2022-10-13T12:36:37.769Z,55.93
2022-10-13T12:37:40.740Z,56.23
2022-10-13T12:38:49.319Z,56.79
2022-10-13T12:39:52.440Z,55.59
2022-10-13T12:41:01.443Z,55.59
2022-10-13T12:42:07.937Z,55.08
2022-10-13T12:43:20.914Z,54.83
2022-10-13T12:44:32.430Z,55.27
2022-10-13T12:45:35.791Z,56.44
2022-10-13T12:46:38.518Z,56.61
2022-10-13T12:47:44.374Z,54.75
2022-10-13T12:48:48.815Z,54.76
2022-10-13T12:49:51.680Z,54.81
2022-10-13T12:50:54.762Z,54.58
2022-10-13T12:52:09.558Z,55.82
2022-10-13T12:53:17.235Z,55.70
2022-10-13T12:54:27.313Z,54.77
2022-10-13T12:55:31.691Z,54.51
2022-10-13T12:56:35.019Z,54.55
2022-10-13T12:57:38.917Z,55.13
2022-10-13T12:58:43.964Z,54.74
2022-10-13T12:59:47.456Z,54.55
2022-10-13T13:01:09.502Z,54.25
2022-10-13T13:02:28.628Z,55.04
2022-10-13T13:03:31.715Z,54.59
2022-10-13T13:04:37.518Z,55.44
2022-10-13T13:05:49.211Z,55.07
2022-10-13T13:06:56.673Z,55.41
2022-10-13T13:08:00.497Z,55.18
2022-10-13T13:09:23.453Z,54.60
2022-10-13T13:10:26.876Z,55.13
2022-10-13T13:11:38.618Z,54.66
2022-10-13T13:12:42.557Z,57.06
2022-10-13T13:13:45.417Z,55.71
2022-10-13T13:14:51.301Z,55.10
2022-10-13T13:15:54.908Z,55.53
2022-10-13T13:17:11.372Z,54.06
2022-10-13T13:18:27.228Z,54.17
2022-10-13T13:19:33.050Z,55.62
2022-10-13T13:20:38.081Z,56.04
2022-10-13T13:21:41.234Z,56.01
2022-10-13T13:22:44.082Z,54.58
2022-10-13T13:23:52.873Z,54.10
2022-10-13T13:24:57.228Z,54.07
2022-10-13T13:26:17.318Z,54.89
2022-10-13T13:27:39.982Z,55.30
2022-10-13T13:28:45.159Z,55.40
2022-10-13T13:29:48.257Z,55.91
2022-10-13T13:30:51.243Z,55.80
2022-10-13T13:31:54.056Z,55.64
2022-10-13T13:32:56.808Z,55.31
2022-10-13T13:33:59.573Z,55.76
2022-10-13T13:35:02.511Z,55.87
2022-10-13T13:36:14.714Z,56.00
2022-10-13T13:37:26.767Z,55.95
2022-10-13T13:38:29.839Z,56.92
2022-10-13T13:39:33.232Z,57.33
2022-10-13T13:40:36.061Z,57.00
2022-10-13T13:41:39.072Z,56.98
2022-10-13T13:42:41.941Z,56.33
2022-10-13T13:43:44.836Z,57.01
2022-10-13T13:44:47.811Z,56.65
2022-10-13T13:47:02.556Z,56.10
2022-10-13T13:48:05.369Z,55.31
2022-10-13T13:49:10.821Z,55.54
2022-10-13T13:50:24.284Z,55.50
2022-10-13T13:51:30.688Z,56.08
2022-10-13T13:52:33.498Z,55.15
2022-10-13T13:53:36.971Z,54.94
2022-10-13T13:54:40.054Z,55.65
2022-10-13T13:55:45.284Z,56.11
2022-10-13T13:56:48.308Z,56.27
2022-10-13T13:57:51.509Z,56.10
2022-10-13T13:58:54.348Z,56.22
2022-10-13T13:59:57.049Z,56.42
2022-10-13T14:01:00.336Z,56.04
2022-10-13T14:02:04.062Z,56.46
2022-10-13T14:03:06.946Z,55.93
2022-10-13T14:04:09.668Z,56.27
2022-10-13T14:05:12.762Z,56.64
2022-10-13T14:06:20.637Z,56.86
2022-10-13T14:07:24.670Z,56.35
2022-10-13T14:08:35.412Z,56.42
2022-10-13T14:09:38.552Z,57.29
2022-10-13T14:10:41.511Z,56.79
2022-10-13T14:11:44.361Z,57.19
2022-10-13T14:12:47.665Z,57.59
2022-10-13T14:13:50.645Z,58.07
2022-10-13T14:14:53.534Z,57.77
2022-10-13T14:16:00.525Z,57.55
2022-10-13T14:17:04.517Z,57.58
2022-10-13T14:18:13.428Z,57.46
2022-10-13T14:19:16.411Z,57.10
2022-10-13T14:20:19.257Z,56.62
2022-10-13T14:21:22.050Z,56.60
2022-10-13T14:22:25.050Z,56.37
2022-10-13T14:23:28.143Z,56.49
2022-10-13T14:24:31.048Z,56.86
2022-10-13T14:25:34.030Z,58.26
2022-10-13T14:26:36.977Z,58.07
2022-10-13T14:27:39.868Z,57.09
2022-10-13T14:28:46.685Z,56.71
2022-10-13T14:29:49.474Z,56.62
2022-10-13T14:30:53.001Z,57.28
2022-10-13T14:31:56.011Z,57.04